createdAt,value
2018-04-28T00:02:19.790Z,5.43
2018-04-28T00:04:47.390Z,6.20
2018-04-28T00:07:15.794Z,4.93
2018-04-28T00:09:43.401Z,5.30
2018-04-28T00:12:11.060Z,5.67
2018-04-28T00:14:38.641Z,6.67
2018-04-28T00:17:07.986Z,6.10
2018-04-28T00:19:39.229Z,5.80
2018-04-28T00:22:25.340Z,5.47
2018-04-28T00:24:54.672Z,5.93
2018-04-28T00:30:47.731Z,5.57
2018-04-28T00:33:27.020Z,5.70
2018-04-28T00:35:56.440Z,5.50
2018-04-28T00:38:24.017Z,5.80
2018-04-28T00:40:51.683Z,6.33
2018-04-28T00:43:19.255Z,5.77
2018-04-28T00:45:49.868Z,5.80
2018-04-28T00:51:14.742Z,5.60
2018-04-28T00:53:42.365Z,6.40
2018-04-28T00:56:10.876Z,6.67
2018-04-28T00:58:59.246Z,6.80
2018-04-28T01:01:38.759Z,6.93
2018-04-28T01:04:18.095Z,5.87
2018-04-28T01:06:45.722Z,6.57
2018-04-28T01:09:15.082Z,6.70
2018-04-28T01:11:43.616Z,6.33
2018-04-28T01:14:12.741Z,5.93
2018-04-28T01:16:44.913Z,6.47
2018-04-28T01:19:16.575Z,6.60
2018-04-28T01:21:44.209Z,6.60
2018-04-28T01:24:17.717Z,6.80
2018-04-28T01:26:46.987Z,6.50
2018-04-28T01:29:19.193Z,6.57
2018-04-28T01:31:55.690Z,6.33
2018-04-28T01:34:29.207Z,6.50
2018-04-28T01:37:05.611Z,6.80
2018-04-28T01:39:43.344Z,6.60
2018-04-28T01:45:31.309Z,6.43
2018-04-28T01:48:07.394Z,6.07
2018-04-28T01:51:03.026Z,6.57
2018-04-28T01:53:31.434Z,6.70
2018-04-28T01:56:31.640Z,6.83
2018-04-28T01:59:00.495Z,7.00
2018-04-28T02:01:28.707Z,6.77
2018-04-28T02:03:56.979Z,6.53
2018-04-28T02:09:28.253Z,6.90
2018-04-28T02:11:58.457Z,6.57
2018-04-28T02:14:33.667Z,7.00
2018-04-28T02:17:01.289Z,6.50
2018-04-28T02:19:53.679Z,7.10
2018-04-28T02:25:28.552Z,6.80
2018-04-28T02:27:59.749Z,6.70
2018-04-28T02:30:27.325Z,6.90
2018-04-28T02:32:58.360Z,6.97
2018-04-28T02:35:29.510Z,6.87
2018-04-28T02:38:06.725Z,7.10
2018-04-28T02:40:44.839Z,7.20
2018-04-28T02:43:12.475Z,6.70
2018-04-28T02:45:42.479Z,7.13
2018-04-28T02:48:11.781Z,7.37
2018-04-28T02:50:42.263Z,6.73
2018-04-28T02:53:16.696Z,7.00
2018-04-28T02:59:04.484Z,6.43
2018-04-28T03:01:42.416Z,7.20
2018-04-28T03:04:10.775Z,6.97
2018-04-28T03:06:51.183Z,6.47
2018-04-28T03:09:22.650Z,7.30
2018-04-28T03:15:00.592Z,6.97
2018-04-28T03:17:38.642Z,6.47
2018-04-28T03:20:25.060Z,7.40
2018-04-28T03:22:56.532Z,7.40
2018-04-28T03:25:26.282Z,6.70
2018-04-28T03:31:08.535Z,7.67
2018-04-28T03:33:36.856Z,7.50
2018-04-28T03:36:13.477Z,8.13
2018-04-28T03:38:48.814Z,6.77
2018-04-28T03:41:32.206Z,7.40
2018-04-28T03:44:01.536Z,7.30
2018-04-28T03:46:32.049Z,7.27
2018-04-28T03:49:02.684Z,7.47
2018-04-28T03:51:30.329Z,7.50
2018-04-28T03:54:23.500Z,7.67
2018-04-28T03:56:53.844Z,7.13
2018-04-28T03:59:33.255Z,7.43
2018-04-28T04:02:12.733Z,7.80
2018-04-28T04:04:46.172Z,7.43
2018-04-28T04:07:21.007Z,7.20
2018-04-28T04:09:50.096Z,6.73
2018-04-28T04:15:21.703Z,6.93
2018-04-28T04:18:06.999Z,7.50
2018-04-28T04:20:52.304Z,7.53
2018-04-28T04:23:35.952Z,7.03
2018-04-28T04:29:17.965Z,7.23
2018-04-28T04:31:50.120Z,7.37
2018-04-28T04:37:44.844Z,8.27
2018-04-28T04:40:39.381Z,7.00
2018-04-28T04:43:20.409Z,7.83
2018-04-28T04:45:53.999Z,7.23
2018-04-28T04:48:33.562Z,8.03
2018-04-28T04:51:04.416Z,7.43
2018-04-28T04:53:38.524Z,7.40
2018-04-28T04:56:17.979Z,6.70
2018-04-28T04:58:49.013Z,6.83
2018-04-28T05:04:42.726Z,6.60
2018-04-28T05:07:16.495Z,6.43
2018-04-28T05:09:52.048Z,7.10
2018-04-28T05:15:47.202Z,7.60
2018-04-28T05:18:26.606Z,6.40
2018-04-28T05:21:00.156Z,6.73
2018-04-28T05:23:42.729Z,6.50
2018-04-28T05:26:20.096Z,7.40
2018-04-28T05:32:14.481Z,7.10
2018-04-28T05:37:54.290Z,7.00
2018-04-28T05:40:29.786Z,7.70
2018-04-28T05:43:03.289Z,6.53
2018-04-28T05:45:40.460Z,6.67
2018-04-28T05:51:19.408Z,6.87
2018-04-28T05:53:54.547Z,7.07
2018-04-28T06:00:04.939Z,6.70
2018-04-28T06:02:39.412Z,7.17
2018-04-28T06:05:32.145Z,6.47
2018-04-28T06:11:12.524Z,6.60
2018-04-28T06:13:56.851Z,6.60
2018-04-28T06:16:31.997Z,6.00
2018-04-28T06:22:10.280Z,6.73
2018-04-28T06:24:37.912Z,7.63
2018-04-28T06:27:05.503Z,6.27
2018-04-28T06:29:33.166Z,6.20
2018-04-28T06:32:00.857Z,6.90
2018-04-28T06:34:28.669Z,7.00
2018-04-28T06:36:59.944Z,5.83
2018-04-28T06:39:29.393Z,5.77
2018-04-28T06:41:57.005Z,6.60
2018-04-28T06:44:24.629Z,6.10
2018-04-28T06:46:52.241Z,5.97
2018-04-28T06:49:20.587Z,5.73
2018-04-28T06:51:48.253Z,6.10
2018-04-28T06:54:16.620Z,5.90
2018-04-28T06:56:44.224Z,6.00
2018-04-28T06:59:12.623Z,5.80
2018-04-28T07:01:40.232Z,6.00
2018-04-28T07:04:07.814Z,6.20
2018-04-28T07:06:36.185Z,6.10
2018-04-28T07:09:05.452Z,5.87
2018-04-28T07:11:33.069Z,5.83
2018-04-28T07:14:00.676Z,5.40
2018-04-28T07:16:28.438Z,5.73
2018-04-28T07:18:56.030Z,6.10
2018-04-28T07:21:24.451Z,5.90
2018-04-28T07:23:52.040Z,5.87
2018-04-28T07:26:19.738Z,6.20
2018-04-28T07:28:48.192Z,5.60
2018-04-28T07:31:15.827Z,6.00
2018-04-28T07:33:43.405Z,5.60
2018-04-28T07:36:11.025Z,5.53
2018-04-28T07:38:38.677Z,5.70
2018-04-28T07:41:06.263Z,5.37
2018-04-28T07:43:33.936Z,5.87
2018-04-28T07:46:01.552Z,6.20
2018-04-28T07:48:29.193Z,5.90
2018-04-28T07:50:57.731Z,5.80
2018-04-28T07:53:25.985Z,5.77
2018-04-28T07:55:53.625Z,6.10
2018-04-28T07:58:21.433Z,5.53
2018-04-28T08:00:49.163Z,5.43
2018-04-28T08:03:16.778Z,5.70
2018-04-28T08:05:44.356Z,5.33
2018-04-28T08:08:12.988Z,5.70
2018-04-28T08:10:40.646Z,5.80
2018-04-28T08:13:08.290Z,5.67
2018-04-28T08:15:35.874Z,5.40
2018-04-28T08:18:03.625Z,5.43
2018-04-28T08:20:31.273Z,4.80
2018-04-28T08:22:59.629Z,6.00
2018-04-28T08:25:28.091Z,5.50
2018-04-28T08:27:55.705Z,4.70
2018-04-28T08:30:23.293Z,5.10
2018-04-28T08:32:50.960Z,5.30
2018-04-28T08:35:18.632Z,4.90
2018-04-28T08:37:46.997Z,4.60
2018-04-28T08:40:14.657Z,5.33
2018-04-28T08:42:43.094Z,4.80
2018-04-28T08:45:11.484Z,5.40
2018-04-28T08:47:39.115Z,4.90
2018-04-28T08:50:07.522Z,5.07
2018-04-28T08:52:35.166Z,6.20
2018-04-28T08:55:02.748Z,5.33
2018-04-28T08:57:30.407Z,6.40
2018-04-28T09:00:09.943Z,5.60
2018-04-28T09:02:37.563Z,7.60
2018-04-28T09:05:05.962Z,5.17
2018-04-28T09:07:39.042Z,5.63
2018-04-28T09:10:06.644Z,5.87
2018-04-28T09:12:34.294Z,6.60
2018-04-28T09:15:01.939Z,5.70
2018-04-28T09:17:30.184Z,5.27
2018-04-28T09:19:59.201Z,5.23
2018-04-28T09:22:27.450Z,6.87
2018-04-28T09:24:56.023Z,7.70
2018-04-28T09:27:23.635Z,7.00
2018-04-28T09:29:51.260Z,4.80
2018-04-28T09:32:18.921Z,5.17
2018-04-28T09:34:47.350Z,4.83
2018-04-28T09:37:14.990Z,5.97
2018-04-28T09:39:42.630Z,5.43
2018-04-28T09:42:10.232Z,5.77
2018-04-28T09:44:37.887Z,5.87
2018-04-28T09:47:05.564Z,5.83
2018-04-28T09:49:33.181Z,4.90
2018-04-28T09:52:01.275Z,5.10
2018-04-28T09:54:29.634Z,4.50
2018-04-28T09:56:57.296Z,5.27
2018-04-28T09:59:24.949Z,4.20
2018-04-28T10:01:58.622Z,4.07
2018-04-28T10:04:27.063Z,4.50
2018-04-28T10:06:54.647Z,4.60
2018-04-28T10:09:22.306Z,5.57
2018-04-28T10:11:49.970Z,6.47
2018-04-28T10:14:17.703Z,5.30
2018-04-28T10:16:45.308Z,4.87
2018-04-28T10:19:13.842Z,4.80
2018-04-28T10:21:41.492Z,5.40
2018-04-28T10:24:09.077Z,6.00
2018-04-28T10:26:36.851Z,5.70
2018-04-28T10:29:04.493Z,5.23
2018-04-28T10:31:32.106Z,4.87
2018-04-28T10:34:00.870Z,4.63
2018-04-28T10:36:29.270Z,5.20
2018-04-28T10:38:58.253Z,4.90
2018-04-28T10:41:26.705Z,4.50
2018-04-28T10:43:54.337Z,5.20
2018-04-28T10:46:21.950Z,5.83
2018-04-28T10:48:50.321Z,4.50
2018-04-28T10:51:17.967Z,5.27
2018-04-28T10:53:45.587Z,4.77
2018-04-28T10:56:13.263Z,4.80
2018-04-28T10:58:40.877Z,4.00
2018-04-28T11:01:09.257Z,4.33
2018-04-28T11:03:37.653Z,4.17
2018-04-28T11:06:05.269Z,3.93
2018-04-28T11:08:32.941Z,4.07
2018-04-28T11:11:00.531Z,3.90
2018-04-28T11:13:28.188Z,3.90
2018-04-28T11:15:55.845Z,4.27
2018-04-28T11:18:24.466Z,3.37
2018-04-28T11:20:52.087Z,3.67
2018-04-28T11:23:20.481Z,4.10
2018-04-28T11:25:48.167Z,3.50
2018-04-28T11:28:16.560Z,3.87
2018-04-28T11:30:45.406Z,3.23
2018-04-28T11:33:13.076Z,3.43
2018-04-28T11:35:40.736Z,3.97
2018-04-28T11:38:08.359Z,2.90
2018-04-28T11:40:36.809Z,2.93
2018-04-28T11:43:05.335Z,2.50
2018-04-28T11:45:33.014Z,2.67
2018-04-28T11:48:00.684Z,2.40
2018-04-28T11:50:28.340Z,2.63
2018-04-28T11:52:55.979Z,2.60
2018-04-28T11:55:23.620Z,2.30
2018-04-28T11:58:00.304Z,2.63
2018-04-28T12:00:28.689Z,2.50
2018-04-28T12:02:57.113Z,2.67
2018-04-28T12:05:24.770Z,2.43
2018-04-28T12:07:52.365Z,3.27
2018-04-28T12:10:19.956Z,2.77
2018-04-28T12:12:48.410Z,2.77
2018-04-28T12:15:16.069Z,2.53
2018-04-28T12:17:45.091Z,3.13
2018-04-28T12:20:12.680Z,2.23
2018-04-28T12:22:40.390Z,2.27
2018-04-28T12:25:08.785Z,2.50
2018-04-28T12:27:39.810Z,2.70
2018-04-28T12:30:10.877Z,1.90
2018-04-28T12:32:40.833Z,2.10
2018-04-28T12:35:08.519Z,2.90
2018-04-28T12:37:36.210Z,2.70
2018-04-28T12:40:03.872Z,3.00
2018-04-28T12:42:31.517Z,2.60
2018-04-28T12:44:59.946Z,2.10
2018-04-28T12:47:27.562Z,2.37
2018-04-28T12:49:57.634Z,2.70
2018-04-28T12:52:27.477Z,2.37
2018-04-28T12:54:55.326Z,2.60
2018-04-28T12:57:22.944Z,2.80
2018-04-28T12:59:50.601Z,2.03
2018-04-28T13:02:19.006Z,2.50
2018-04-28T13:04:46.659Z,2.87
2018-04-28T13:07:14.243Z,3.03
2018-04-28T13:09:42.020Z,2.30
2018-04-28T13:12:09.663Z,2.63
2018-04-28T13:14:37.291Z,2.23
2018-04-28T13:17:04.937Z,2.83
2018-04-28T13:19:32.850Z,2.83
2018-04-28T13:22:01.290Z,2.43
2018-04-28T13:24:28.917Z,2.50
2018-04-28T13:26:57.411Z,2.60
2018-04-28T13:29:25.779Z,2.70
2018-04-28T13:31:54.234Z,2.17
2018-04-28T13:34:22.659Z,2.60
2018-04-28T13:36:50.345Z,2.50
2018-04-28T13:39:17.966Z,2.60
2018-04-28T13:41:46.428Z,1.90
2018-04-28T13:44:14.952Z,2.40
2018-04-28T13:46:42.634Z,2.57
2018-04-28T13:49:10.277Z,2.30
2018-04-28T13:51:38.065Z,3.00
2018-04-28T13:54:05.688Z,2.63
2018-04-28T13:56:33.631Z,3.03
2018-04-28T13:59:03.162Z,1.80
2018-04-28T14:01:30.816Z,1.90
2018-04-28T14:03:58.485Z,1.90
2018-04-28T14:06:26.119Z,2.27
2018-04-28T14:08:54.499Z,1.67
2018-04-28T14:11:22.927Z,1.73
2018-04-28T14:13:50.585Z,1.83
2018-04-28T14:16:18.277Z,1.87
2018-04-28T14:18:45.939Z,2.47
2018-04-28T14:21:13.576Z,2.10
2018-04-28T14:23:41.163Z,1.80
2018-04-28T14:26:08.821Z,2.10
2018-04-28T14:28:36.459Z,2.20
2018-04-28T14:31:04.081Z,1.80
2018-04-28T14:33:32.469Z,1.80
2018-04-28T14:36:00.112Z,1.80
2018-04-28T14:38:28.557Z,2.50
2018-04-28T14:40:57.011Z,2.50
2018-04-28T14:43:24.667Z,2.50
2018-04-28T14:45:52.271Z,2.30
2018-04-28T14:48:19.915Z,2.03
2018-04-28T14:50:48.389Z,2.20
2018-04-28T14:53:15.988Z,2.20
2018-04-28T14:55:44.367Z,1.90
2018-04-28T14:58:13.008Z,2.70
2018-04-28T15:00:40.612Z,2.70
2018-04-28T15:03:09.000Z,1.87
2018-04-28T15:05:36.672Z,2.20
2018-04-28T15:08:04.268Z,2.47
2018-04-28T15:10:31.864Z,2.00
2018-04-28T15:13:00.283Z,3.20
2018-04-28T15:15:27.884Z,2.63
2018-04-28T15:17:55.488Z,2.30
2018-04-28T15:20:23.123Z,2.00
2018-04-28T15:22:51.751Z,2.30
2018-04-28T15:25:19.473Z,2.10
2018-04-28T15:27:47.914Z,2.20
2018-04-28T15:30:16.339Z,2.57
2018-04-28T15:32:43.942Z,1.90
2018-04-28T15:35:11.617Z,2.43
2018-04-28T15:37:39.231Z,2.70
2018-04-28T15:40:06.881Z,2.90
2018-04-28T15:42:34.502Z,2.30
2018-04-28T15:45:02.123Z,2.30
2018-04-28T15:47:29.783Z,2.80
2018-04-28T15:49:57.513Z,3.30
2018-04-28T15:52:25.450Z,3.17
2018-04-28T15:54:54.747Z,3.00
2018-04-28T15:57:22.335Z,2.40
2018-04-28T15:59:50.683Z,2.73
2018-04-28T16:02:18.329Z,2.40
2018-04-28T16:04:46.066Z,2.40
2018-04-28T16:07:13.751Z,2.07
2018-04-28T16:09:41.336Z,2.47
2018-04-28T16:12:08.921Z,2.50
2018-04-28T16:14:37.370Z,2.10
2018-04-28T16:17:04.981Z,2.33
2018-04-28T16:19:32.577Z,2.30
2018-04-28T16:22:00.206Z,2.43
2018-04-28T16:24:27.853Z,2.13
2018-04-28T16:26:56.500Z,2.60
2018-04-28T16:29:24.236Z,2.10
2018-04-28T16:31:51.878Z,2.20
2018-04-28T16:34:19.543Z,2.50
2018-04-28T16:36:47.214Z,2.10
2018-04-28T16:39:14.837Z,2.47
2018-04-28T16:41:43.174Z,2.13
2018-04-28T16:44:10.844Z,2.13
2018-04-28T16:46:38.440Z,2.30
2018-04-28T16:49:06.858Z,2.70
2018-04-28T16:51:34.505Z,2.03
2018-04-28T16:54:02.124Z,2.70
2018-04-28T16:56:30.577Z,2.70
2018-04-28T16:58:58.251Z,2.53
2018-04-28T17:01:26.635Z,2.53
2018-04-28T17:03:55.137Z,2.50
2018-04-28T17:06:23.583Z,2.83
2018-04-28T17:08:51.217Z,2.50
2018-04-28T17:11:18.849Z,3.10
2018-04-28T17:13:46.453Z,3.10
2018-04-28T17:16:14.080Z,3.17
2018-04-28T17:18:41.868Z,2.90
2018-04-28T17:21:09.491Z,2.40
2018-04-28T17:23:37.109Z,2.90
2018-04-28T17:26:04.821Z,3.20
2018-04-28T17:28:33.053Z,3.27
2018-04-28T17:31:00.693Z,3.10
2018-04-28T17:33:28.353Z,2.70
2018-04-28T17:35:56.021Z,2.80
2018-04-28T17:38:23.654Z,3.13
2018-04-28T17:40:51.332Z,3.00
2018-04-28T17:43:18.982Z,3.20
2018-04-28T17:45:46.663Z,2.53
2018-04-28T17:48:14.309Z,4.17
2018-04-28T17:50:42.050Z,3.43
2018-04-28T17:53:09.841Z,3.50
2018-04-28T17:55:37.439Z,3.40
2018-04-28T17:58:05.872Z,3.70
2018-04-28T18:00:33.533Z,4.03
2018-04-28T18:03:01.192Z,4.20
2018-04-28T18:05:28.844Z,2.90
2018-04-28T18:07:56.499Z,2.93
2018-04-28T18:10:24.160Z,3.67
2018-04-28T18:12:51.906Z,4.03
2018-04-28T18:15:19.639Z,4.73
2018-04-28T18:17:48.750Z,4.47
2018-04-28T18:20:17.130Z,4.23
2018-04-28T18:22:45.532Z,3.80
2018-04-28T18:25:13.283Z,4.10
2018-04-28T18:27:40.965Z,3.87
2018-04-28T18:30:08.582Z,3.80
2018-04-28T18:32:37.001Z,4.70
2018-04-28T18:35:04.657Z,4.30
2018-04-28T18:37:32.345Z,5.20
2018-04-28T18:39:59.937Z,4.83
2018-04-28T18:42:29.820Z,4.20
2018-04-28T18:44:57.529Z,4.57
2018-04-28T18:47:26.145Z,3.70
2018-04-28T18:49:53.920Z,4.27
2018-04-28T18:52:21.603Z,4.60
2018-04-28T18:54:49.294Z,4.07
2018-04-28T18:57:17.734Z,4.30
2018-04-28T18:59:45.331Z,3.90
2018-04-28T19:02:13.188Z,4.70
2018-04-28T19:04:41.668Z,4.60
2018-04-28T19:07:10.475Z,5.90
2018-04-28T19:09:38.302Z,6.60
2018-04-28T19:12:05.975Z,5.00
2018-04-28T19:14:33.624Z,5.80
2018-04-28T19:17:01.293Z,5.87
2018-04-28T19:19:28.933Z,6.70
2018-04-28T19:21:56.699Z,7.50
2018-04-28T19:24:24.317Z,5.80
2018-04-28T19:26:51.987Z,6.27
2018-04-28T19:29:19.720Z,6.10
2018-04-28T19:31:47.524Z,7.00
2018-04-28T19:34:15.321Z,6.87
2018-04-28T19:36:42.990Z,6.10
2018-04-28T19:39:10.651Z,7.10
2018-04-28T19:41:38.283Z,7.67
2018-04-28T19:44:05.891Z,7.30
2018-04-28T19:46:34.943Z,6.10
2018-04-28T19:49:02.672Z,6.20
2018-04-28T19:51:30.513Z,6.10
2018-04-28T19:53:58.997Z,6.53
2018-04-28T19:56:26.691Z,6.33
2018-04-28T19:58:54.541Z,6.23
2018-04-28T20:01:24.969Z,4.57
2018-04-28T20:03:52.669Z,3.97
2018-04-28T20:06:21.007Z,4.43
2018-04-28T20:08:48.705Z,5.30
2018-04-28T20:11:16.305Z,4.63
2018-04-28T20:13:44.762Z,4.80
2018-04-28T20:16:12.533Z,4.63
2018-04-28T20:18:41.004Z,3.70
2018-04-28T20:21:08.642Z,4.27
2018-04-28T20:23:48.257Z,4.30
2018-04-28T20:26:16.285Z,3.93
2018-04-28T20:28:47.353Z,3.90
2018-04-28T20:31:15.785Z,4.07
2018-04-28T20:33:44.192Z,4.37
2018-04-28T20:36:11.954Z,3.47
2018-04-28T20:38:40.513Z,4.20
2018-04-28T20:41:08.176Z,4.53
2018-04-28T20:43:35.821Z,4.07
2018-04-28T20:46:03.762Z,4.03
2018-04-28T20:48:31.501Z,4.10
2018-04-28T20:50:59.860Z,4.80
2018-04-28T20:53:27.524Z,4.20
2018-04-28T20:55:55.163Z,4.23
2018-04-28T20:58:22.861Z,4.77
2018-04-28T21:00:50.520Z,5.00
2018-04-28T21:03:18.968Z,5.13
2018-04-28T21:05:46.571Z,4.90
2018-04-28T21:08:14.506Z,4.37
2018-04-28T21:10:42.119Z,4.87
2018-04-28T21:13:09.759Z,4.90
2018-04-28T21:15:38.096Z,4.40
2018-04-28T21:18:05.732Z,4.80
2018-04-28T21:20:34.503Z,4.33
2018-04-28T21:23:02.143Z,4.40
2018-04-28T21:25:29.772Z,4.70
2018-04-28T21:27:58.050Z,4.83
2018-04-28T21:30:25.753Z,4.97
2018-04-28T21:32:53.453Z,5.40
2018-04-28T21:35:21.091Z,4.93
2018-04-28T21:37:48.745Z,5.03
2018-04-28T21:40:17.020Z,4.60
2018-04-28T21:42:44.736Z,5.70
2018-04-28T21:45:12.391Z,4.40
2018-04-28T21:47:40.009Z,5.07
2018-04-28T21:50:07.729Z,5.10
2018-04-28T21:52:35.393Z,5.23
2018-04-28T21:55:03.932Z,4.80
2018-04-28T21:57:32.371Z,5.87
2018-04-28T22:00:00.753Z,5.03
2018-04-28T22:02:28.400Z,4.57
2018-04-28T22:04:56.764Z,4.83
2018-04-28T22:07:25.921Z,4.63
2018-04-28T22:09:54.341Z,5.00
2018-04-28T22:12:21.982Z,5.10
2018-04-28T22:14:49.633Z,5.20
2018-04-28T22:17:17.237Z,4.80
2018-04-28T22:19:46.490Z,5.17
2018-04-28T22:22:14.910Z,5.07
2018-04-28T22:24:43.384Z,5.37
2018-04-28T22:27:11.916Z,5.20
2018-04-28T22:29:40.680Z,4.77
2018-04-28T22:32:08.317Z,4.47
2018-04-28T22:34:36.954Z,4.83
2018-04-28T22:37:04.626Z,4.90
2018-04-28T22:39:33.352Z,4.87
2018-04-28T22:42:01.023Z,4.93
2018-04-28T22:44:29.404Z,4.20
2018-04-28T22:46:57.779Z,4.47
2018-04-28T22:49:26.095Z,4.50
2018-04-28T22:51:53.840Z,5.17
2018-04-28T22:54:21.647Z,5.70
2018-04-28T22:56:49.300Z,5.43
2018-04-28T22:59:16.960Z,5.00
2018-04-28T23:01:44.768Z,5.27
2018-04-28T23:04:14.037Z,5.33
2018-04-28T23:06:41.774Z,5.20
2018-04-28T23:09:09.393Z,5.10
2018-04-28T23:11:37.851Z,5.73
2018-04-28T23:14:05.467Z,5.57
2018-04-28T23:16:33.168Z,4.93
2018-04-28T23:19:02.701Z,4.97
2018-04-28T23:21:31.047Z,6.07
2018-04-28T23:23:58.665Z,5.70
2018-04-28T23:26:26.468Z,5.63
2018-04-28T23:28:54.976Z,5.63
2018-04-28T23:31:22.758Z,5.50
2018-04-28T23:33:50.442Z,4.87
2018-04-28T23:36:19.592Z,5.07
2018-04-28T23:38:48.044Z,5.70
2018-04-28T23:41:15.662Z,5.70
2018-04-28T23:43:43.320Z,5.10
2018-04-28T23:46:11.150Z,5.70
2018-04-28T23:48:39.576Z,5.20
2018-04-28T23:51:07.185Z,5.53
2018-04-28T23:53:35.009Z,5.87
2018-04-28T23:56:02.660Z,5.97
2018-04-28T23:58:30.257Z,5.97
